createdAt,value
2023-04-12T00:01:33.324Z,3.40
2023-04-12T00:04:04.372Z,3.50
2023-04-12T00:06:33.671Z,2.70
2023-04-12T00:09:01.933Z,3.43
2023-04-12T00:11:29.967Z,3.20
2023-04-12T00:13:57.998Z,3.40
2023-04-12T00:16:26.121Z,3.07
2023-04-12T00:19:09.565Z,3.20
2023-04-12T00:21:38.622Z,3.30
2023-04-12T00:24:06.688Z,3.10
2023-04-12T00:26:34.496Z,3.77
2023-04-12T00:29:02.329Z,3.10
2023-04-12T00:31:30.602Z,3.63
2023-04-12T00:33:58.783Z,3.50
2023-04-12T00:36:27.084Z,2.90
2023-04-12T00:38:56.274Z,3.27
2023-04-12T00:41:24.887Z,3.30
2023-04-12T00:43:52.762Z,3.20
2023-04-12T00:46:20.726Z,3.03
2023-04-12T00:48:48.683Z,3.10
2023-04-12T00:51:17.962Z,3.00
2023-04-12T00:53:46.235Z,3.00
2023-04-12T00:56:15.455Z,3.78
2023-04-12T00:58:43.195Z,3.07
2023-04-12T01:01:10.983Z,3.80
2023-04-12T01:03:53.631Z,3.10
2023-04-12T01:06:38.490Z,2.63
2023-04-12T01:09:20.436Z,3.40
2023-04-12T01:12:00.015Z,2.80
2023-04-12T01:14:46.264Z,3.20
2023-04-12T01:17:20.671Z,2.83
2023-04-12T01:19:57.650Z,2.90
2023-04-12T01:22:39.126Z,3.67
2023-04-12T01:25:26.462Z,2.20
2023-04-12T01:27:58.761Z,3.10
2023-04-12T01:30:29.698Z,2.43
2023-04-12T01:33:00.519Z,3.00
2023-04-12T01:35:31.286Z,2.70
2023-04-12T01:38:00.269Z,2.40
2023-04-12T01:40:29.378Z,4.53
2023-04-12T01:43:07.144Z,2.50
2023-04-12T01:45:35.190Z,2.37
2023-04-12T01:48:04.647Z,2.50
2023-04-12T01:50:40.926Z,2.40
2023-04-12T01:53:14.040Z,2.33
2023-04-12T01:55:46.593Z,3.10
2023-04-12T01:58:18.174Z,2.40
2023-04-12T02:00:46.889Z,2.80
2023-04-12T02:03:15.164Z,2.57
2023-04-12T02:05:43.216Z,2.13
2023-04-12T02:08:11.719Z,2.50
2023-04-12T02:10:40.399Z,2.40
2023-04-12T02:13:08.193Z,2.70
2023-04-12T02:15:38.485Z,2.20
2023-04-12T02:18:06.804Z,2.37
2023-04-12T02:20:35.544Z,1.90
2023-04-12T02:23:03.271Z,2.30
2023-04-12T02:25:33.274Z,2.03
2023-04-12T02:28:01.009Z,2.27
2023-04-12T02:30:28.703Z,2.53
2023-04-12T02:32:58.595Z,2.50
2023-04-12T02:35:26.394Z,2.80
2023-04-12T02:37:54.885Z,2.30
2023-04-12T02:40:23.146Z,2.00
2023-04-12T02:42:50.900Z,2.00
2023-04-12T02:45:18.576Z,2.90
2023-04-12T02:47:46.304Z,2.20
2023-04-12T02:50:15.462Z,2.93
2023-04-12T02:52:43.163Z,2.20
2023-04-12T02:55:11.140Z,2.40
2023-04-12T02:57:38.949Z,2.60
2023-04-12T03:00:11.787Z,2.67
2023-04-12T03:02:39.597Z,2.50
2023-04-12T03:05:08.713Z,2.50
2023-04-12T03:07:38.630Z,2.30
2023-04-12T03:10:07.802Z,2.40
2023-04-12T03:12:35.603Z,2.23
2023-04-12T03:15:03.380Z,2.20
2023-04-12T03:17:31.229Z,2.20
2023-04-12T03:20:06.363Z,3.20
2023-04-12T03:22:34.057Z,2.23
2023-04-12T03:25:03.888Z,2.63
2023-04-12T03:27:31.620Z,2.33
2023-04-12T03:29:59.375Z,2.60
2023-04-12T03:32:27.131Z,1.90
2023-04-12T03:34:55.333Z,2.03
2023-04-12T03:37:23.109Z,2.73
2023-04-12T03:39:50.892Z,2.90
2023-04-12T03:42:32.361Z,2.53
2023-04-12T03:45:01.130Z,2.87
2023-04-12T03:47:29.029Z,3.20
2023-04-12T03:50:10.854Z,3.70
2023-04-12T03:52:39.820Z,2.80
2023-04-12T03:55:08.361Z,3.03
2023-04-12T03:57:37.805Z,3.23
2023-04-12T04:00:08.390Z,2.92
2023-04-12T04:02:42.254Z,2.53
2023-04-12T04:05:13.117Z,3.10
2023-04-12T04:07:41.080Z,3.07
2023-04-12T04:10:09.499Z,3.57
2023-04-12T04:12:38.571Z,2.43
2023-04-12T04:15:07.131Z,2.73
2023-04-12T04:17:34.916Z,2.83
2023-04-12T04:20:05.229Z,2.47
2023-04-12T04:22:33.016Z,3.47
2023-04-12T04:25:01.161Z,2.50
2023-04-12T04:27:30.550Z,2.70
2023-04-12T04:29:59.580Z,3.17
2023-04-12T04:32:27.510Z,2.80
2023-04-12T04:34:57.320Z,2.77
2023-04-12T04:37:25.577Z,2.70
2023-04-12T04:39:53.376Z,2.90
2023-04-12T04:42:21.511Z,2.30
2023-04-12T04:44:51.267Z,3.40
2023-04-12T04:47:22.203Z,2.50
2023-04-12T04:49:49.908Z,2.60
2023-04-12T04:52:18.340Z,2.70
2023-04-12T04:54:46.894Z,3.20
2023-04-12T04:57:14.789Z,2.47
2023-04-12T04:59:42.489Z,2.87
2023-04-12T05:02:10.937Z,1.98
2023-04-12T05:04:40.033Z,2.30
2023-04-12T05:07:07.750Z,2.87
2023-04-12T05:09:35.471Z,2.27
2023-04-12T05:12:03.420Z,2.00
2023-04-12T05:14:44.542Z,2.03
2023-04-12T05:17:14.719Z,2.23
2023-04-12T05:19:44.882Z,2.77
2023-04-12T05:22:13.754Z,2.10
2023-04-12T05:24:41.558Z,2.17
2023-04-12T05:27:09.346Z,2.73
2023-04-12T05:29:37.100Z,2.00
2023-04-12T05:32:05.004Z,2.13
2023-04-12T05:34:32.711Z,1.73
2023-04-12T05:37:02.211Z,2.00
2023-04-12T05:39:30.005Z,1.93
2023-04-12T05:41:57.752Z,2.83
2023-04-12T05:44:25.631Z,2.20
2023-04-12T05:46:53.358Z,1.80
2023-04-12T05:49:21.201Z,2.10
2023-04-12T05:51:48.910Z,2.30
2023-04-12T05:54:20.893Z,1.97
2023-04-12T05:56:48.620Z,3.27
2023-04-12T05:59:16.343Z,1.57
2023-04-12T06:01:44.616Z,2.07
2023-04-12T06:04:12.726Z,2.30
2023-04-12T06:06:40.608Z,2.20
2023-04-12T06:09:08.308Z,1.90
2023-04-12T06:11:39.075Z,2.33
2023-04-12T06:14:07.785Z,2.30
2023-04-12T06:16:36.573Z,2.73
2023-04-12T06:19:05.193Z,1.87
2023-04-12T06:21:32.992Z,1.80
2023-04-12T06:24:00.834Z,2.10
2023-04-12T06:26:37.287Z,1.73
2023-04-12T06:29:08.604Z,1.70
2023-04-12T06:31:36.660Z,1.90
2023-04-12T06:34:04.443Z,1.90
2023-04-12T06:36:32.210Z,1.70
2023-04-12T06:38:59.970Z,1.97
2023-04-12T06:41:27.760Z,2.10
2023-04-12T06:43:55.512Z,2.17
2023-04-12T06:46:28.681Z,1.80
2023-04-12T06:48:56.660Z,1.90
2023-04-12T06:51:24.585Z,2.53
2023-04-12T06:53:52.348Z,1.77
2023-04-12T06:56:20.081Z,1.80
2023-04-12T06:58:47.844Z,1.45
2023-04-12T07:01:15.651Z,1.80
2023-04-12T07:03:45.087Z,1.80
2023-04-12T07:06:24.546Z,3.90
2023-04-12T07:08:53.704Z,2.23
2023-04-12T07:11:23.126Z,1.83
2023-04-12T07:13:52.019Z,1.50
2023-04-12T07:16:19.819Z,3.03
2023-04-12T07:18:49.415Z,1.77
2023-04-12T07:21:17.875Z,1.77
2023-04-12T07:23:46.769Z,1.93
2023-04-12T07:26:14.695Z,1.63
2023-04-12T07:28:42.424Z,1.60
2023-04-12T07:31:10.244Z,2.10
2023-04-12T07:33:41.407Z,1.97
2023-04-12T07:36:12.747Z,1.70
2023-04-12T07:38:40.456Z,1.80
2023-04-12T07:41:08.230Z,1.80
2023-04-12T07:43:35.965Z,2.23
2023-04-12T07:46:07.543Z,1.77
2023-04-12T07:48:35.643Z,2.10
2023-04-12T07:51:03.357Z,2.17
2023-04-12T07:53:32.412Z,1.60
2023-04-12T07:56:00.183Z,2.07
2023-04-12T07:58:27.959Z,1.87
2023-04-12T08:00:58.085Z,2.00
2023-04-12T08:03:28.107Z,2.17
2023-04-12T08:05:55.954Z,1.87
2023-04-12T08:08:23.950Z,1.73
2023-04-12T08:10:53.765Z,2.57
2023-04-12T08:13:21.907Z,1.63
2023-04-12T08:15:49.679Z,1.60
2023-04-12T08:18:17.439Z,2.00
2023-04-12T08:20:45.165Z,1.70
2023-04-12T08:23:13.346Z,1.70
2023-04-12T08:25:41.648Z,1.30
2023-04-12T08:28:10.779Z,1.77
2023-04-12T08:30:38.492Z,1.90
2023-04-12T08:33:06.515Z,1.40
2023-04-12T08:35:34.232Z,1.50
2023-04-12T08:38:07.326Z,1.80
2023-04-12T08:40:35.139Z,1.90
2023-04-12T08:43:03.980Z,1.80
2023-04-12T08:45:35.186Z,1.80
2023-04-12T08:48:04.133Z,1.70
2023-04-12T08:50:32.311Z,2.20
2023-04-12T08:53:00.904Z,1.90
2023-04-12T08:55:28.704Z,2.10
2023-04-12T08:57:56.975Z,2.33
2023-04-12T09:00:25.762Z,1.87
2023-04-12T09:02:55.034Z,2.27
2023-04-12T09:05:29.611Z,1.93
2023-04-12T09:07:57.813Z,2.57
2023-04-12T09:10:33.491Z,1.97
2023-04-12T09:13:01.614Z,1.60
2023-04-12T09:15:29.365Z,2.20
2023-04-12T09:18:09.204Z,1.57
2023-04-12T09:20:37.711Z,1.83
2023-04-12T09:23:19.193Z,1.70
2023-04-12T09:25:48.346Z,2.43
2023-04-12T09:28:21.311Z,1.70
2023-04-12T09:30:51.609Z,2.00
2023-04-12T09:33:22.640Z,1.53
2023-04-12T09:35:51.345Z,1.97
2023-04-12T09:38:19.200Z,2.90
2023-04-12T09:40:49.108Z,1.80
2023-04-12T09:43:16.845Z,1.67
2023-04-12T09:45:44.538Z,2.10
2023-04-12T09:48:21.978Z,2.30
2023-04-12T09:50:49.727Z,1.80
2023-04-12T09:53:19.177Z,1.63
2023-04-12T09:55:49.730Z,1.50
2023-04-12T09:58:20.741Z,1.73
2023-04-12T10:00:49.229Z,1.53
2023-04-12T10:03:17.523Z,1.70
2023-04-12T10:05:46.788Z,1.70
2023-04-12T10:08:15.204Z,1.77
2023-04-12T10:10:46.287Z,1.57
2023-04-12T10:13:16.911Z,1.93
2023-04-12T10:15:48.119Z,2.00
2023-04-12T10:18:18.730Z,2.33
2023-04-12T10:20:48.607Z,1.43
2023-04-12T10:23:17.430Z,1.77
2023-04-12T10:25:47.856Z,1.90
2023-04-12T10:28:17.259Z,1.40
2023-04-12T10:30:45.646Z,1.40
2023-04-12T10:33:17.930Z,1.40
2023-04-12T10:35:58.007Z,1.30
2023-04-12T10:38:27.279Z,7.70
2023-04-12T10:41:09.466Z,1.03
2023-04-12T10:43:37.664Z,1.43
2023-04-12T10:46:06.820Z,1.70
2023-04-12T10:48:35.821Z,1.10
2023-04-12T10:51:25.291Z,1.27
2023-04-12T10:53:53.591Z,1.10
2023-04-12T10:56:39.028Z,1.07
2023-04-12T10:59:07.872Z,1.47
2023-04-12T11:01:38.567Z,1.10
2023-04-12T11:04:15.769Z,1.13
2023-04-12T11:06:50.310Z,2.23
2023-04-12T11:09:19.531Z,1.30
2023-04-12T11:11:47.380Z,1.10
2023-04-12T11:14:19.088Z,1.33
2023-04-12T11:17:27.523Z,1.43
2023-04-12T11:19:58.313Z,1.27
2023-04-12T11:22:29.833Z,1.53
2023-04-12T11:24:59.128Z,1.40
2023-04-12T11:27:28.420Z,1.40
2023-04-12T11:29:57.947Z,1.63
2023-04-12T11:32:27.589Z,1.10
2023-04-12T11:34:56.629Z,0.97
2023-04-12T11:37:26.927Z,1.33
2023-04-12T11:39:58.506Z,1.17
2023-04-12T11:42:28.160Z,1.20
2023-04-12T11:44:59.748Z,0.87
2023-04-12T11:47:31.246Z,1.20
2023-04-12T11:50:00.126Z,1.70
2023-04-12T11:52:30.575Z,1.30
2023-04-12T11:55:02.148Z,1.40
2023-04-12T11:57:30.973Z,0.90
2023-04-12T11:59:59.906Z,1.43
2023-04-12T12:02:32.313Z,1.10
2023-04-12T12:05:03.154Z,1.00
2023-04-12T12:07:31.617Z,1.13
2023-04-12T12:10:02.068Z,0.90
2023-04-12T12:12:29.774Z,1.30
2023-04-12T12:15:01.148Z,1.17
2023-04-12T12:17:29.051Z,1.10
2023-04-12T12:19:59.248Z,0.80
2023-04-12T12:22:27.052Z,0.80
2023-04-12T12:24:57.949Z,1.10
2023-04-12T12:27:37.288Z,0.87
2023-04-12T12:30:07.876Z,1.40
2023-04-12T12:32:37.075Z,0.80
2023-04-12T12:35:10.081Z,1.00
2023-04-12T12:37:38.062Z,0.87
2023-04-12T12:40:13.649Z,0.90
2023-04-12T12:42:50.692Z,1.00
2023-04-12T12:45:20.340Z,0.90
2023-04-12T12:47:50.160Z,0.80
2023-04-12T12:50:19.241Z,0.80
2023-04-12T12:52:48.163Z,0.90
2023-04-12T12:55:17.144Z,1.57
2023-04-12T12:57:55.026Z,0.90
2023-04-12T13:00:31.615Z,1.00
2023-04-12T13:02:59.805Z,0.93
2023-04-12T13:05:27.858Z,0.90
2023-04-12T13:07:55.569Z,1.00
2023-04-12T13:10:23.670Z,1.00
2023-04-12T13:12:51.455Z,0.80
2023-04-12T13:15:23.278Z,1.00
2023-04-12T13:17:54.096Z,0.80
2023-04-12T13:20:22.190Z,0.70
2023-04-12T13:22:50.122Z,0.85
2023-04-12T13:25:19.700Z,0.80
2023-04-12T13:27:48.331Z,0.70
2023-04-12T13:30:16.311Z,0.80
2023-04-12T13:32:44.628Z,0.70
2023-04-12T13:35:14.299Z,0.70
2023-04-12T13:37:42.438Z,0.70
2023-04-12T13:40:10.898Z,0.60
2023-04-12T13:42:39.636Z,0.83
2023-04-12T13:45:08.538Z,0.67
2023-04-12T13:47:36.528Z,0.70
2023-04-12T13:50:04.612Z,0.90
2023-04-12T13:52:33.673Z,1.30
2023-04-12T13:55:01.388Z,0.77
2023-04-12T13:57:29.116Z,0.83
2023-04-12T13:59:56.826Z,1.03
2023-04-12T14:02:24.550Z,0.77
2023-04-12T14:04:53.678Z,0.97
2023-04-12T14:07:21.822Z,0.80
2023-04-12T14:09:50.945Z,1.00
2023-04-12T14:12:18.697Z,0.83
2023-04-12T14:14:46.489Z,0.83
2023-04-12T14:17:14.228Z,1.00
2023-04-12T14:19:41.984Z,0.90
2023-04-12T14:22:09.708Z,1.00
2023-04-12T14:24:37.694Z,1.13
2023-04-12T14:27:06.862Z,0.60
2023-04-12T14:29:35.473Z,1.10
2023-04-12T14:32:03.161Z,0.93
2023-04-12T14:34:31.198Z,1.00
2023-04-12T14:37:00.225Z,0.80
2023-04-12T14:39:28.117Z,1.00
2023-04-12T14:41:56.849Z,1.40
2023-04-12T14:44:26.464Z,1.20
2023-04-12T14:46:54.398Z,1.50
2023-04-12T14:49:22.196Z,0.60
2023-04-12T14:51:49.915Z,0.97
2023-04-12T14:54:17.635Z,0.77
2023-04-12T14:56:51.626Z,0.80
2023-04-12T14:59:21.597Z,0.83
2023-04-12T15:01:52.337Z,0.80
2023-04-12T15:04:20.513Z,0.77
2023-04-12T15:06:56.042Z,0.80
2023-04-12T15:09:31.558Z,0.70
2023-04-12T15:12:01.650Z,0.73
2023-04-12T15:14:29.564Z,0.80
2023-04-12T15:16:58.623Z,1.00
2023-04-12T15:19:27.209Z,1.00
2023-04-12T15:21:56.006Z,0.70
2023-04-12T15:24:24.713Z,0.97
2023-04-12T15:26:53.364Z,0.80
2023-04-12T15:29:24.217Z,0.60
2023-04-12T15:31:52.000Z,1.27
2023-04-12T15:34:23.382Z,0.80
2023-04-12T15:36:51.937Z,0.80
2023-04-12T15:39:20.038Z,0.70
2023-04-12T15:41:47.904Z,0.83
2023-04-12T15:44:16.045Z,0.83
2023-04-12T15:46:43.970Z,0.90
2023-04-12T15:49:11.957Z,1.20
2023-04-12T15:51:41.251Z,0.70
2023-04-12T15:54:08.970Z,0.93
2023-04-12T15:56:38.075Z,0.77
2023-04-12T15:59:06.127Z,1.00
2023-04-12T16:01:35.542Z,1.00
2023-04-12T16:04:03.703Z,1.27
2023-04-12T16:06:34.661Z,1.10
2023-04-12T16:09:04.895Z,0.90
2023-04-12T16:11:33.921Z,1.10
2023-04-12T16:14:01.973Z,0.93
2023-04-12T16:16:29.795Z,1.00
2023-04-12T16:18:59.682Z,1.20
2023-04-12T16:21:28.369Z,1.10
2023-04-12T16:23:56.089Z,1.03
2023-04-12T16:26:25.917Z,1.20
2023-04-12T16:28:53.791Z,0.97
2023-04-12T16:31:22.623Z,1.50
2023-04-12T16:33:51.148Z,1.50
2023-04-12T16:36:23.230Z,1.50
2023-04-12T16:38:51.550Z,1.00
2023-04-12T16:41:20.322Z,1.20
2023-04-12T16:43:52.706Z,1.20
2023-04-12T16:46:20.957Z,1.20
2023-04-12T16:48:48.818Z,1.03
2023-04-12T16:51:16.893Z,1.60
2023-04-12T16:53:44.986Z,1.93
2023-04-12T16:56:12.803Z,2.00
2023-04-12T16:58:40.649Z,2.20
2023-04-12T17:01:09.755Z,1.57
2023-04-12T17:03:37.602Z,3.00
2023-04-12T17:06:05.898Z,1.47
2023-04-12T17:08:33.626Z,1.40
2023-04-12T17:11:01.456Z,1.80
2023-04-12T17:13:30.194Z,1.60
2023-04-12T17:15:57.997Z,1.70
2023-04-12T17:18:27.201Z,2.00
2023-04-12T17:20:55.897Z,1.57
2023-04-12T17:23:24.087Z,2.10
2023-04-12T17:25:51.831Z,2.20
2023-04-12T17:28:19.546Z,2.30
2023-04-12T17:30:47.285Z,2.10
2023-04-12T17:33:18.292Z,2.40
2023-04-12T17:35:47.396Z,2.80
2023-04-12T17:38:15.143Z,2.00
2023-04-12T17:40:42.899Z,2.20
2023-04-12T17:43:10.876Z,2.40
2023-04-12T17:45:38.731Z,2.00
2023-04-12T17:48:08.320Z,2.57
2023-04-12T17:50:36.089Z,2.87
2023-04-12T17:53:05.186Z,3.00
2023-04-12T17:55:33.023Z,2.60
2023-04-12T17:58:00.775Z,2.30
2023-04-12T18:00:28.939Z,2.80
2023-04-12T18:02:57.004Z,2.77
2023-04-12T18:05:24.874Z,2.37
2023-04-12T18:07:52.630Z,2.30
2023-04-12T18:10:23.223Z,2.23
2023-04-12T18:12:51.117Z,2.60
2023-04-12T18:15:19.142Z,2.13
2023-04-12T18:17:46.975Z,1.80
2023-04-12T18:20:16.384Z,1.50
2023-04-12T18:22:45.789Z,1.67
2023-04-12T18:25:13.845Z,1.70
2023-04-12T18:27:42.979Z,1.70
2023-04-12T18:30:11.197Z,2.07
2023-04-12T18:32:39.190Z,1.67
2023-04-12T18:35:08.068Z,1.20
2023-04-12T18:37:37.093Z,1.00
2023-04-12T18:40:07.874Z,0.97
2023-04-12T18:42:35.744Z,0.67
2023-04-12T18:45:05.834Z,1.03
2023-04-12T18:47:33.604Z,1.30
2023-04-12T18:50:01.592Z,1.03
2023-04-12T18:52:29.418Z,1.60
2023-04-12T18:54:57.165Z,0.90
2023-04-12T18:57:24.942Z,1.00
2023-04-12T18:59:52.835Z,1.37
2023-04-12T19:02:22.064Z,1.50
2023-04-12T19:04:49.842Z,1.23
2023-04-12T19:07:17.577Z,1.60
2023-04-12T19:09:46.906Z,1.43
2023-04-12T19:12:14.708Z,1.23
2023-04-12T19:14:42.511Z,1.50
2023-04-12T19:17:10.233Z,1.30
2023-04-12T19:19:39.271Z,1.40
2023-04-12T19:22:07.013Z,1.20
2023-04-12T19:24:34.824Z,2.10
2023-04-12T19:27:03.575Z,2.80
2023-04-12T19:29:31.312Z,2.63
2023-04-12T19:32:00.721Z,2.73
2023-04-12T19:34:28.509Z,1.70
2023-04-12T19:36:57.546Z,1.13
2023-04-12T19:39:26.835Z,1.13
2023-04-12T19:41:54.642Z,2.50
2023-04-12T19:44:23.158Z,2.90
2023-04-12T19:46:51.975Z,2.43
2023-04-12T19:49:19.866Z,3.00
2023-04-12T19:51:48.189Z,3.70
2023-04-12T19:54:18.993Z,3.50
2023-04-12T19:56:48.632Z,3.00
2023-04-12T19:59:17.516Z,2.50
2023-04-12T20:01:48.696Z,2.93
2023-04-12T20:04:17.224Z,2.50
2023-04-12T20:06:47.166Z,2.80
2023-04-12T20:09:15.225Z,3.50
2023-04-12T20:11:44.364Z,3.37
2023-04-12T20:14:12.321Z,3.17
2023-04-12T20:16:42.658Z,2.80
2023-04-12T20:19:11.129Z,2.80
2023-04-12T20:21:39.056Z,3.40
2023-04-12T20:24:08.677Z,2.60
2023-04-12T20:26:37.335Z,3.13
2023-04-12T20:29:07.907Z,3.10
2023-04-12T20:31:36.020Z,2.80
2023-04-12T20:34:04.099Z,3.27
2023-04-12T20:36:32.724Z,3.40
2023-04-12T20:39:01.462Z,2.60
2023-04-12T20:41:29.297Z,3.07
2023-04-12T20:43:57.665Z,3.13
2023-04-12T20:46:26.781Z,2.57
2023-04-12T20:51:23.816Z,3.00
2023-04-12T20:53:51.612Z,2.97
2023-04-12T20:56:19.734Z,3.20
2023-04-12T20:58:49.655Z,3.50
2023-04-12T21:01:18.663Z,2.90
2023-04-12T21:03:49.391Z,2.90
2023-04-12T21:06:17.921Z,2.63
2023-04-12T21:08:47.293Z,2.77
2023-04-12T21:11:15.004Z,2.17
2023-04-12T21:13:44.453Z,2.70
2023-04-12T21:16:15.960Z,2.33
2023-04-12T21:18:43.913Z,3.00
2023-04-12T21:21:13.124Z,2.30
2023-04-12T21:23:40.957Z,2.47
2023-04-12T21:26:08.705Z,2.30
2023-04-12T21:28:38.384Z,2.40
2023-04-12T21:31:06.896Z,2.47
2023-04-12T21:33:36.515Z,2.47
2023-04-12T21:36:05.078Z,3.00
2023-04-12T21:38:34.237Z,3.47
2023-04-12T21:41:06.441Z,2.70
2023-04-12T21:43:34.453Z,2.60
2023-04-12T21:46:02.419Z,3.37
2023-04-12T21:48:30.502Z,2.97
2023-04-12T21:50:58.344Z,2.60
2023-04-12T21:53:26.963Z,3.00
2023-04-12T21:55:56.281Z,2.33
2023-04-12T21:58:24.065Z,2.50
2023-04-12T22:00:52.406Z,2.40
2023-04-12T22:03:20.270Z,2.40
2023-04-12T22:06:00.771Z,3.70
2023-04-12T22:08:32.771Z,2.57
2023-04-12T22:11:02.249Z,2.73
2023-04-12T22:13:30.644Z,2.63
2023-04-12T22:15:58.380Z,3.00
2023-04-12T22:18:27.235Z,2.80
2023-04-12T22:20:56.160Z,2.53
2023-04-12T22:23:23.984Z,2.67
2023-04-12T22:25:51.706Z,2.73
2023-04-12T22:28:22.537Z,3.53
2023-04-12T22:30:51.524Z,2.90
2023-04-12T22:33:19.253Z,4.40
2023-04-12T22:35:46.965Z,2.97
2023-04-12T22:38:15.664Z,3.00
2023-04-12T22:40:43.392Z,3.20
2023-04-12T22:43:17.999Z,3.15
2023-04-12T22:45:47.324Z,3.20
2023-04-12T22:48:15.807Z,3.03
2023-04-12T22:50:44.552Z,3.97
2023-04-12T22:53:13.918Z,3.37
2023-04-12T22:55:42.155Z,3.43
2023-04-12T22:58:09.965Z,3.07
2023-04-12T23:00:39.292Z,3.17
2023-04-12T23:03:10.817Z,3.33
2023-04-12T23:05:38.925Z,3.10
2023-04-12T23:08:07.136Z,3.40
2023-04-12T23:10:34.878Z,3.40
2023-04-12T23:13:03.163Z,4.00
2023-04-12T23:15:31.637Z,3.47
2023-04-12T23:18:01.580Z,4.13
2023-04-12T23:20:31.283Z,3.70
2023-04-12T23:22:59.084Z,3.93
2023-04-12T23:25:38.460Z,3.80
2023-04-12T23:28:12.530Z,3.93
2023-04-12T23:30:42.447Z,4.00
2023-04-12T23:33:11.803Z,3.47
2023-04-12T23:35:42.071Z,4.37
2023-04-12T23:38:10.382Z,3.90
2023-04-12T23:40:38.146Z,3.20
2023-04-12T23:43:07.553Z,4.43
2023-04-12T23:45:36.069Z,4.85
2023-04-12T23:48:03.939Z,5.00
2023-04-12T23:50:32.517Z,5.20
2023-04-12T23:53:01.622Z,6.13
2023-04-12T23:55:29.434Z,6.53
2023-04-12T23:57:57.190Z,6.33
